Time;durP1;ratioP1;P1;durP2;ratioP2;P2;SDS_P1;SDS_P2;PMS_P1;PMS_P2;Temp;Humidity;BMP_temperature;BMP_pressure;BME280_temperature;BME280_humidity;BME280_pressure;Samples;Min_cycle;Max_cycle;Signal;HPM_P1;HPM_P2
2022/10/27 04:32:14;;;;;;;;;2.67;2.67;;;;;-147.14;100.00;58812.66;5131177;23;45442;-65
2022/10/27 04:34:43;;;;;;;;;4.00;1.67;;;;;-147.14;100.00;58812.66;5003212;28;68377;-62
2022/10/27 04:37:08;;;;;;;;;5.00;3.00;;;;;-147.14;100.00;58812.66;5011805;28;45476;-62
2022/10/27 04:39:34;;;;;;;;;4.00;3.00;;;;;-147.14;100.00;58812.66;4999973;28;66446;-62
2022/10/27 04:41:59;;;;;;;;;3.00;3.00;;;;;-147.14;100.00;58812.66;5008116;28;72661;-62
2022/10/27 04:44:24;;;;;;;;;3.33;3.33;;;;;-147.14;100.00;58812.66;5003665;28;67594;-62
2022/10/27 04:46:49;;;;;;;;;3.00;2.33;;;;;-147.14;100.00;58812.66;5006148;28;63125;-62
2022/10/27 04:49:15;;;;;;;;;4.00;2.00;;;;;-147.14;100.00;58812.66;5000641;28;66142;-62
2022/10/27 04:51:40;;;;;;;;;2.67;2.67;;;;;-147.14;100.00;58812.66;5011508;28;55417;-62
2022/10/27 04:54:06;;;;;;;;;1.00;1.00;;;;;-147.14;100.00;58812.66;5001219;28;72171;-62
2022/10/27 04:56:31;;;;;;;;;3.00;3.00;;;;;-147.14;100.00;58812.66;5007590;28;45276;-62
2022/10/27 04:58:56;;;;;;;;;2.00;2.00;;;;;-147.14;100.00;58812.66;5009817;28;58894;-62
2022/10/27 05:01:22;;;;;;;;;3.67;2.33;;;;;-147.14;100.00;58812.66;5007436;28;75132;-62
2022/10/27 05:03:48;;;;;;;;;4.00;4.00;;;;;-147.14;100.00;58812.66;5003096;28;46074;-62
2022/10/27 05:06:13;;;;;;;;;3.33;3.33;;;;;-147.14;100.00;58812.66;5005312;28;45600;-62
2022/10/27 05:08:39;;;;;;;;;5.00;3.00;;;;;-147.14;100.00;58812.66;5002599;28;61390;-62
2022/10/27 05:11:04;;;;;;;;;4.00;3.00;;;;;-147.14;100.00;58812.66;5001844;28;72804;-62
2022/10/27 05:13:29;;;;;;;;;3.33;2.33;;;;;-147.14;100.00;58812.66;5014602;28;56096;-62
2022/10/27 05:15:59;;;;;;;;;3.00;3.00;;;;;-147.14;100.00;58812.66;5011972;28;67816;-62
2022/10/27 05:18:24;;;;;;;;;5.00;3.00;;;;;-147.14;100.00;58812.66;5001115;28;45679;-62
2022/10/27 05:20:50;;;;;;;;;3.67;3.67;;;;;-147.14;100.00;58812.66;5004662;28;71618;-62
2022/10/27 05:23:15;;;;;;;;;4.33;2.33;;;;;-147.14;100.00;58812.66;5005210;28;68132;-62
2022/10/27 05:25:40;;;;;;;;;5.67;3.00;;;;;-147.14;100.00;58812.66;5008150;28;64776;-62
2022/10/27 05:28:07;;;;;;;;;7.00;4.00;;;;;-147.14;100.00;58812.66;5010039;28;58586;-62
2022/10/27 05:30:32;;;;;;;;;3.00;3.00;;;;;-147.14;100.00;58812.66;5009234;28;46400;-62
2022/10/27 05:32:57;;;;;;;;;5.00;5.00;;;;;-147.14;100.00;58812.66;4999236;28;68670;-62
2022/10/27 05:35:23;;;;;;;;;4.67;4.00;;;;;-147.14;100.00;58812.66;5009023;28;67770;-62
2022/10/27 05:37:48;;;;;;;;;4.67;3.00;;;;;-147.14;100.00;58812.66;5000755;28;45463;-62
2022/10/27 05:40:14;;;;;;;;;5.67;3.33;;;;;-147.14;100.00;58812.66;5003863;28;75612;-62
2022/10/27 05:42:39;;;;;;;;;5.67;3.00;;;;;-147.14;100.00;58812.66;5003391;28;45462;-62
2022/10/27 05:45:05;;;;;;;;;7.67;4.33;;;;;-147.14;100.00;58812.66;5006986;28;45467;-62
2022/10/27 05:47:30;;;;;;;;;3.67;3.67;;;;;-147.14;100.00;58812.66;5002277;28;45644;-61
2022/10/27 05:49:55;;;;;;;;;4.00;3.00;;;;;-147.14;100.00;58812.66;5006302;28;68932;-62
2022/10/27 05:52:21;;;;;;;;;5.00;4.00;;;;;-147.14;100.00;58812.66;5012071;28;69234;-61
2022/10/27 05:54:46;;;;;;;;;5.33;4.00;;;;;-147.14;100.00;58812.66;5007542;28;67496;-62
2022/10/27 05:57:11;;;;;;;;;6.00;4.00;;;;;-147.14;100.00;58812.66;5003734;28;65899;-62
2022/10/27 05:59:37;;;;;;;;;8.67;3.67;;;;;-147.14;100.00;58812.66;5008102;28;45391;-62
2022/10/27 06:02:02;;;;;;;;;5.00;5.00;;;;;-147.14;100.00;58812.66;5005487;28;67381;-62
2022/10/27 06:04:27;;;;;;;;;5.00;5.00;;;;;-147.14;100.00;58812.66;5012132;28;63036;-62
2022/10/27 06:06:53;;;;;;;;;2.67;2.67;;;;;-147.14;100.00;58812.66;5011394;28;45463;-62
2022/10/27 06:09:18;;;;;;;;;3.67;3.67;;;;;-147.14;100.00;58812.66;4999550;28;45399;-62
2022/10/27 06:11:43;;;;;;;;;5.67;4.00;;;;;-147.14;100.00;58812.66;5000312;28;71604;-62
2022/10/27 06:14:09;;;;;;;;;5.00;3.00;;;;;-147.14;100.00;58812.66;5000635;28;67901;-62
2022/10/27 06:16:34;;;;;;;;;4.00;3.00;;;;;-147.14;100.00;58812.66;5002684;28;45438;-61
2022/10/27 06:18:59;;;;;;;;;4.00;3.67;;;;;-147.14;100.00;58812.66;4998135;28;74510;-62
2022/10/27 06:21:25;;;;;;;;;4.00;4.00;;;;;-147.14;100.00;58812.66;4999062;28;69212;-62
2022/10/27 06:23:50;;;;;;;;;3.00;3.00;;;;;-147.14;100.00;58812.66;5005078;28;45909;-62
2022/10/27 06:26:16;;;;;;;;;5.33;4.00;;;;;-147.14;100.00;58812.66;5001546;28;67099;-63
2022/10/27 06:28:41;;;;;;;;;5.00;5.00;;;;;-147.14;100.00;58812.66;4999222;28;45647;-62
2022/10/27 06:31:06;;;;;;;;;5.00;5.00;;;;;-147.14;100.00;58812.66;4997398;28;69517;-62
2022/10/27 06:33:32;;;;;;;;;2.33;2.33;;;;;-147.14;100.00;58812.66;4998525;28;57394;-63
2022/10/27 06:35:57;;;;;;;;;7.00;4.00;;;;;-147.14;100.00;58812.66;5010158;28;66872;-61
2022/10/27 06:38:22;;;;;;;;;7.00;5.33;;;;;-147.14;100.00;58812.66;4999618;28;68034;-61
2022/10/27 06:40:47;;;;;;;;;4.33;3.00;;;;;-147.14;100.00;58812.66;4998873;28;48682;-62
2022/10/27 06:43:13;;;;;;;;;5.00;5.00;;;;;-147.14;100.00;58812.66;4998830;28;62974;-62
2022/10/27 06:45:39;;;;;;;;;4.00;4.00;;;;;-147.14;100.00;58812.66;4999701;28;45522;-62
2022/10/27 06:48:07;;;;;;;;;6.00;6.00;;;;;-147.14;100.00;58812.66;5011874;28;45602;-63
2022/10/27 06:50:33;;;;;;;;;7.00;5.00;;;;;-147.14;100.00;58812.66;5004825;28;45294;-63
2022/10/27 06:53:00;;;;;;;;;7.33;5.00;;;;;-147.14;100.00;58812.66;5010241;28;45965;-63
2022/10/27 06:55:27;;;;;;;;;5.67;4.33;;;;;-147.14;100.00;58812.66;4998735;28;45357;-63
2022/10/27 06:57:53;;;;;;;;;6.33;5.00;;;;;-147.14;100.00;58812.66;5005307;28;46377;-63
2022/10/27 07:00:18;;;;;;;;;7.33;6.67;;;;;-147.14;100.00;58812.66;5003154;28;64652;-63
2022/10/27 07:02:44;;;;;;;;;7.33;6.67;;;;;-147.14;100.00;58812.66;5005769;28;45521;-62
2022/10/27 07:05:09;;;;;;;;;6.67;5.67;;;;;-147.14;100.00;58812.66;5002681;28;45455;-62
2022/10/27 07:07:35;;;;;;;;;12.00;4.67;;;;;-147.14;100.00;58812.66;4998232;28;46150;-62
2022/10/27 07:10:01;;;;;;;;;8.00;6.00;;;;;-147.14;100.00;58812.66;4998748;28;45405;-62
2022/10/27 07:12:26;;;;;;;;;4.33;4.33;;;;;-147.14;100.00;58812.66;5006777;28;45345;-63
2022/10/27 07:14:52;;;;;;;;;6.00;6.00;;;;;-147.14;100.00;58812.66;5016767;28;45356;-62
2022/10/27 07:17:17;;;;;;;;;6.00;5.00;;;;;-147.14;100.00;58812.66;5005194;28;45313;-62
2022/10/27 07:19:42;;;;;;;;;8.00;7.00;;;;;-147.14;100.00;58812.66;4999339;28;69822;-62
2022/10/27 07:22:07;;;;;;;;;4.33;4.00;;;;;-147.14;100.00;58812.66;5006702;28;67401;-62
2022/10/27 07:24:33;;;;;;;;;7.00;6.67;;;;;-147.14;100.00;58812.66;5006806;28;64426;-62
2022/10/27 07:26:58;;;;;;;;;5.33;4.00;;;;;-147.14;100.00;58812.66;5006644;28;45633;-63
2022/10/27 07:29:23;;;;;;;;;8.00;5.33;;;;;-147.14;100.00;58812.66;5004048;28;67807;-63
2022/10/27 07:31:49;;;;;;;;;5.00;5.00;;;;;-147.14;100.00;58812.66;5007545;28;55512;-62
2022/10/27 07:34:14;;;;;;;;;7.67;5.67;;;;;-147.14;100.00;58812.66;5004531;28;45452;-62
2022/10/27 07:36:40;;;;;;;;;4.33;4.33;;;;;-147.14;100.00;58812.66;5002061;28;71924;-62
2022/10/27 07:39:06;;;;;;;;;5.67;4.67;;;;;-147.14;100.00;58812.66;5000412;28;71983;-62
2022/10/27 07:41:31;;;;;;;;;8.00;5.00;;;;;-147.14;100.00;58812.66;4998999;28;45352;-62
2022/10/27 07:43:57;;;;;;;;;3.67;3.00;;;;;-147.14;100.00;58812.66;4997133;28;69084;-62
2022/10/27 07:46:22;;;;;;;;;6.00;6.00;;;;;-147.14;100.00;58812.66;5007280;28;45496;-62
2022/10/27 07:48:47;;;;;;;;;8.00;5.00;;;;;-147.14;100.00;58812.66;5003694;28;67515;-62
2022/10/27 07:51:13;;;;;;;;;4.00;4.00;;;;;-147.14;100.00;58812.66;5004687;28;68291;-62
2022/10/27 07:53:38;;;;;;;;;4.67;4.67;;;;;-147.14;100.00;58812.66;5000143;28;45482;-62
2022/10/27 07:56:04;;;;;;;;;8.33;5.67;;;;;-147.14;100.00;58812.66;5007067;28;47018;-62
2022/10/27 07:58:29;;;;;;;;;7.00;5.00;;;;;-147.14;100.00;58812.66;5013215;28;45450;-62
2022/10/27 08:00:56;;;;;;;;;8.33;4.67;;;;;-147.14;100.00;58812.66;4998694;28;46624;-62
2022/10/27 08:03:24;;;;;;;;;5.33;4.00;;;;;-147.14;100.00;58812.66;5006264;28;45503;-61
2022/10/27 08:05:50;;;;;;;;;8.00;6.00;;;;;-147.14;100.00;58812.66;4998679;28;47318;-61
2022/10/27 08:08:16;;;;;;;;;4.00;4.00;;;;;-147.14;100.00;58812.66;5003229;28;45320;-62
2022/10/27 08:10:42;;;;;;;;;5.00;5.00;;;;;-147.14;100.00;58812.66;5004193;28;45487;-61
2022/10/27 08:13:08;;;;;;;;;8.67;6.00;;;;;-147.14;100.00;58812.66;5009394;28;45410;-62
2022/10/27 08:15:34;;;;;;;;;4.67;4.67;;;;;-147.14;100.00;58812.66;5007593;28;45758;-61
2022/10/27 08:18:03;;;;;;;;;5.00;5.00;;;;;-147.14;100.00;58812.66;5008746;28;45594;-61
2022/10/27 08:20:31;;;;;;;;;4.67;4.67;;;;;-147.14;100.00;58812.66;5004209;28;46696;-61
2022/10/27 08:23:00;;;;;;;;;5.33;4.67;;;;;-147.14;100.00;58812.66;4989266;28;45623;-62
2022/10/27 08:25:26;;;;;;;;;4.00;4.00;;;;;-147.14;100.00;58812.66;5009297;28;46251;-61
2022/10/27 08:27:51;;;;;;;;;5.00;5.00;;;;;-147.14;100.00;58812.66;5009715;28;45438;-62
2022/10/27 08:30:17;;;;;;;;;7.00;5.00;;;;;-147.14;100.00;58812.66;5010219;28;45475;-61
2022/10/27 08:32:42;;;;;;;;;5.00;4.33;;;;;-147.14;100.00;58812.66;5009614;28;45526;-62
2022/10/27 08:35:08;;;;;;;;;5.00;5.00;;;;;-147.14;100.00;58812.66;4995438;28;45549;-62
2022/10/27 08:37:33;;;;;;;;;7.00;6.67;;;;;-147.14;100.00;58812.66;5004889;28;45273;-62
2022/10/27 08:39:59;;;;;;;;;7.33;5.00;;;;;-147.14;100.00;58812.66;5011692;28;52880;-62
2022/10/27 08:42:48;;;;;;;;;5.33;5.33;;;;;-147.14;100.00;58812.66;5005652;28;45375;-62
2022/10/27 08:45:20;;;;;;;;;6.67;5.00;;;;;-147.14;100.00;58812.66;5016590;28;45537;-63
2022/10/27 08:47:46;;;;;;;;;7.33;5.67;;;;;-147.14;100.00;58812.66;5008911;28;45662;-61
2022/10/27 08:50:15;;;;;;;;;7.67;5.00;;;;;-147.14;100.00;58812.66;5004743;28;66970;-62
2022/10/27 08:52:45;;;;;;;;;7.00;7.00;;;;;-147.14;100.00;58812.66;4999384;28;45693;-61
2022/10/27 08:55:13;;;;;;;;;6.00;6.00;;;;;-147.14;100.00;58812.66;5006562;28;45931;-62
2022/10/27 08:58:11;;;;;;;;;8.33;7.00;;;;;-147.14;100.00;58812.66;5012288;28;45324;-62
2022/10/27 09:00:48;;;;;;;;;7.00;6.00;;;;;-147.14;100.00;58812.66;5008214;28;45474;-62
2022/10/27 09:03:39;;;;;;;;;6.00;6.00;;;;;-147.14;100.00;58812.66;5020725;28;45282;-62
2022/10/27 09:06:15;;;;;;;;;10.33;5.67;;;;;-147.14;100.00;58812.66;5009549;28;45598;-62
2022/10/27 09:08:58;;;;;;;;;6.67;6.67;;;;;-147.14;100.00;58812.66;5006746;28;45447;-62
2022/10/27 09:12:01;;;;;;;;;5.00;5.00;;;;;-147.14;100.00;58812.66;5023385;28;46191;-63
2022/10/27 09:14:48;;;;;;;;;7.33;7.00;;;;;-147.14;100.00;58812.66;5006129;28;45483;-63
2022/10/27 09:17:22;;;;;;;;;8.00;6.67;;;;;-147.14;100.00;58812.66;5009639;28;46365;-63
2022/10/27 09:19:51;;;;;;;;;6.00;6.00;;;;;-147.14;100.00;58812.66;5006072;28;45537;-63
2022/10/27 09:22:19;;;;;;;;;6.00;6.00;;;;;-147.14;100.00;58812.66;5006232;28;45551;-62
2022/10/27 09:24:53;;;;;;;;;5.75;5.75;;;;;-147.14;100.00;58812.66;5007744;28;45387;-62
2022/10/27 09:27:19;;;;;;;;;8.33;6.00;;;;;-147.14;100.00;58812.66;5006447;28;45472;-62
2022/10/27 09:29:47;;;;;;;;;5.00;5.00;;;;;-147.14;100.00;58812.66;5009148;28;59850;-61
2022/10/27 09:32:25;;;;;;;;;8.33;7.00;;;;;-147.14;100.00;58812.66;4994950;28;45474;-61
2022/10/27 09:35:01;;;;;;;;;8.00;6.67;;;;;-147.14;100.00;58812.66;5006576;28;45471;-62
2022/10/27 09:37:27;;;;;;;;;6.00;5.00;;;;;-147.14;100.00;58812.66;5007468;28;46265;-61
2022/10/27 09:39:53;;;;;;;;;5.67;4.33;;;;;-147.14;100.00;58812.66;5019555;28;45251;-61
2022/10/27 09:42:19;;;;;;;;;9.00;7.00;;;;;-147.14;100.00;58812.66;4999309;28;45372;-62
2022/10/27 09:44:57;;;;;;;;;6.67;6.33;;;;;-147.14;100.00;58812.66;5011282;28;59667;-61
2022/10/27 09:47:24;;;;;;;;;8.33;6.67;;;;;-147.14;100.00;58812.66;5009562;28;45428;-61
2022/10/27 09:49:50;;;;;;;;;9.00;8.00;;;;;-147.14;100.00;58812.66;5021015;28;45446;-61
2022/10/27 09:52:22;;;;;;;;;9.33;8.00;;;;;-147.14;100.00;58812.66;5006414;28;50968;-61
2022/10/27 09:54:53;;;;;;;;;7.67;7.67;;;;;-147.14;100.00;58812.66;5004982;28;45474;-63
2022/10/27 09:57:20;;;;;;;;;7.25;7.00;;;;;-147.14;100.00;58812.66;5006662;28;45359;-63
2022/10/27 09:59:56;;;;;;;;;8.33;6.67;;;;;-147.14;100.00;58812.66;5007839;28;45404;-62
2022/10/27 10:02:27;;;;;;;;;9.67;6.00;;;;;-147.14;100.00;58812.66;5010118;28;45528;-63
2022/10/27 10:04:53;;;;;;;;;8.00;8.00;;;;;-147.14;100.00;58812.66;5007487;28;45396;-62
2022/10/27 10:07:39;;;;;;;;;10.67;6.67;;;;;-147.14;100.00;58812.66;5006790;28;46213;-62
2022/10/27 10:10:09;;;;;;;;;9.33;7.33;;;;;-147.14;100.00;58812.66;5010295;28;45396;-63
2022/10/27 10:12:35;;;;;;;;;8.00;7.00;;;;;-147.14;100.00;58812.66;5005559;28;45804;-62
2022/10/27 10:15:18;;;;;;;;;6.67;5.67;;;;;-147.14;100.00;58812.66;4999386;28;45767;-63
2022/10/27 10:17:52;;;;;;;;;10.33;5.33;;;;;-147.14;100.00;58812.66;4999599;28;45379;-62
2022/10/27 10:20:41;;;;;;;;;7.00;6.67;;;;;-147.14;100.00;58812.66;4998613;28;45506;-63
2022/10/27 10:23:28;;;;;;;;;6.67;6.67;;;;;-147.14;100.00;58812.66;5013264;28;45393;-62
2022/10/27 10:25:57;;;;;;;;;11.67;9.00;;;;;-147.14;100.00;58812.66;5012805;28;45445;-62
2022/10/27 10:28:35;;;;;;;;;8.00;7.67;;;;;-147.14;100.00;58812.66;5000411;28;46100;-62
2022/10/27 10:31:04;;;;;;;;;7.00;7.00;;;;;-147.14;100.00;58812.66;5013445;28;45427;-62
2022/10/27 10:33:33;;;;;;;;;8.67;7.00;;;;;-147.14;100.00;58812.66;4999682;28;45359;-62
2022/10/27 10:35:58;;;;;;;;;6.00;6.00;;;;;-147.14;100.00;58812.66;5012750;28;45740;-62
2022/10/27 10:38:38;;;;;;;;;8.00;8.00;;;;;-147.14;100.00;58812.66;5009268;28;46082;-62
2022/10/27 10:41:10;;;;;;;;;8.75;8.50;;;;;-147.14;100.00;58812.66;5014724;28;45373;-62
2022/10/27 10:43:36;;;;;;;;;14.67;7.33;;;;;-147.14;100.00;58812.66;5003358;28;45416;-62
2022/10/27 10:46:02;;;;;;;;;9.75;8.75;;;;;-147.14;100.00;58812.66;5006562;28;45427;-62
2022/10/27 10:48:31;;;;;;;;;7.33;7.00;;;;;-147.14;100.00;58812.66;5012642;28;45379;-62
2022/10/27 10:50:57;;;;;;;;;8.00;7.67;;;;;-147.14;100.00;58812.66;5007938;28;45394;-62
2022/10/27 10:53:29;;;;;;;;;9.00;8.67;;;;;-147.14;100.00;58812.66;5011639;28;45494;-62
2022/10/27 10:55:57;;;;;;;;;7.75;7.00;;;;;-147.14;100.00;58812.66;5003093;28;45242;-62
2022/10/27 10:58:24;;;;;;;;;6.00;6.00;;;;;-147.14;100.00;58812.66;5008522;28;46249;-63
2022/10/27 11:01:04;;;;;;;;;8.75;7.75;;;;;-147.14;100.00;58812.66;5007091;28;45488;-62
2022/10/27 11:03:43;;;;;;;;;8.25;8.00;;;;;-147.14;100.00;58812.66;5005934;28;45354;-63
2022/10/27 11:06:19;;;;;;;;;7.50;7.00;;;;;-147.14;100.00;58812.66;5011749;28;45688;-63
2022/10/27 11:08:55;;;;;;;;;10.00;9.00;;;;;-147.14;100.00;58812.66;5000644;28;45853;-62
2022/10/27 11:11:22;;;;;;;;;8.50;8.00;;;;;-147.14;100.00;58812.66;5006589;28;45492;-62
2022/10/27 11:13:52;;;;;;;;;9.00;7.25;;;;;-147.14;100.00;58812.66;5003842;28;45491;-62
2022/10/27 11:16:18;;;;;;;;;11.00;9.00;;;;;-147.14;100.00;58812.66;5008307;28;45766;-61
2022/10/27 11:18:49;;;;;;;;;10.25;9.00;;;;;-147.14;100.00;58812.66;5008882;28;70674;-62
2022/10/27 11:21:25;;;;;;;;;9.25;6.50;;;;;-147.14;100.00;58812.66;5019924;28;45467;-62
2022/10/27 11:23:52;;;;;;;;;10.75;8.50;;;;;-147.14;100.00;58812.66;5008722;28;45533;-61
2022/10/27 11:26:26;;;;;;;;;9.25;8.00;;;;;-147.14;100.00;58812.66;5007947;28;45409;-62
2022/10/27 11:29:11;;;;;;;;;9.50;8.50;;;;;-147.14;100.00;58812.66;5009818;28;45491;-61
2022/10/27 11:31:55;;;;;;;;;9.25;8.75;;;;;-147.14;100.00;58812.66;5007509;28;45406;-61
2022/10/27 11:34:30;;;;;;;;;8.33;8.33;;;;;-147.14;100.00;58812.66;5005935;28;45440;-61
2022/10/27 11:37:01;;;;;;;;;8.75;8.25;;;;;-147.14;100.00;58812.66;5004825;28;45523;-62
2022/10/27 11:39:35;;;;;;;;;7.25;7.25;;;;;-147.14;100.00;58812.66;5005649;28;45465;-62
2022/10/27 11:42:19;;;;;;;;;9.00;8.75;;;;;-147.14;100.00;58812.66;5007399;28;45391;-62
2022/10/27 11:45:17;;;;;;;;;11.00;8.00;;;;;-147.14;100.00;58812.66;5008424;28;45476;-62
2022/10/27 11:47:50;;;;;;;;;9.50;8.75;;;;;-147.14;100.00;58812.66;5006474;28;45408;-62
2022/10/27 11:50:30;;;;;;;;;12.00;10.25;;;;;-147.14;100.00;58812.66;5008848;28;45494;-61
2022/10/27 11:52:58;;;;;;;;;12.00;9.00;;;;;-147.14;100.00;58812.66;5005366;28;45459;-61
2022/10/27 11:55:34;;;;;;;;;6.75;6.25;;;;;-147.14;100.00;58812.66;5000000;28;45531;-61
2022/10/27 11:58:09;;;;;;;;;8.25;7.00;;;;;-147.14;100.00;58812.66;5004015;28;45516;-61
2022/10/27 12:00:58;;;;;;;;;8.00;6.25;;;;;-147.14;100.00;58812.66;5005779;28;45583;-61
2022/10/27 12:03:42;;;;;;;;;7.00;7.00;;;;;-147.14;100.00;58812.66;5007589;28;45480;-61
2022/10/27 12:06:27;;;;;;;;;7.50;6.75;;;;;-147.14;100.00;58812.66;5007416;28;45490;-62
2022/10/27 12:08:58;;;;;;;;;6.00;4.00;;;;;-147.14;100.00;58812.66;5027742;28;45550;-61
2022/10/27 12:11:42;;;;;;;;;11.75;5.75;;;;;-147.14;100.00;58812.66;5003395;28;47277;-62
2022/10/27 12:14:13;;;;;;;;;8.50;6.00;;;;;-147.14;100.00;58812.66;5005503;28;45495;-62
2022/10/27 12:17:04;;;;;;;;;7.00;5.00;;;;;-147.14;100.00;58812.66;5004320;28;45669;-61
2022/10/27 12:19:38;;;;;;;;;7.25;7.25;;;;;-147.14;100.00;58812.66;5002644;28;45498;-61
2022/10/27 12:22:24;;;;;;;;;8.00;6.00;;;;;-147.14;100.00;58812.66;5004330;28;47191;-61
2022/10/27 12:24:52;;;;;;;;;9.50;8.00;;;;;-147.14;100.00;58812.66;5004483;28;45415;-61
2022/10/27 12:27:40;;;;;;;;;5.00;4.25;;;;;-147.14;100.00;58812.66;5011322;28;45515;-61
2022/10/27 12:30:11;;;;;;;;;8.50;7.00;;;;;-147.14;100.00;58812.66;5004258;28;45390;-61
2022/10/27 12:32:55;;;;;;;;;6.75;5.25;;;;;-147.14;100.00;58812.66;5003120;28;46211;-61
2022/10/27 12:35:28;;;;;;;;;7.00;4.25;;;;;-147.14;100.00;58812.66;4994840;28;45366;-61
2022/10/27 12:38:12;;;;;;;;;8.25;6.50;;;;;-147.14;100.00;58812.66;5005750;28;45356;-61
2022/10/27 12:40:45;;;;;;;;;7.00;6.00;;;;;-147.14;100.00;58812.66;5001839;28;45369;-61
2022/10/27 12:43:20;;;;;;;;;7.75;6.00;;;;;-147.14;100.00;58812.66;5004732;28;46079;-61
2022/10/27 12:46:10;;;;;;;;;5.50;5.00;;;;;-147.14;100.00;58812.66;5008196;28;45430;-61
2022/10/27 12:49:00;;;;;;;;;8.75;6.25;;;;;-147.14;100.00;58812.66;5008138;28;45404;-62
2022/10/27 12:51:45;;;;;;;;;7.00;7.00;;;;;-147.14;100.00;58812.66;5015624;28;45353;-62
2022/10/27 12:54:17;;;;;;;;;4.75;4.25;;;;;-147.14;100.00;58812.66;5009010;28;45328;-63
2022/10/27 12:56:55;;;;;;;;;8.75;6.50;;;;;-147.14;100.00;58812.66;5015561;28;45308;-62
2022/10/27 12:59:47;;;;;;;;;9.25;7.00;;;;;-147.14;100.00;58812.66;5010425;28;45425;-62
2022/10/27 13:02:12;;;;;;;;;6.75;6.25;;;;;-147.14;100.00;58812.66;5004100;28;45478;-62
2022/10/27 13:04:41;;;;;;;;;7.50;5.25;;;;;-147.14;100.00;58812.66;5003004;28;47044;-61
2022/10/27 13:07:21;;;;;;;;;7.00;5.25;;;;;-147.14;100.00;58812.66;5003659;28;45361;-61
2022/10/27 13:10:15;;;;;;;;;6.75;5.00;;;;;-147.14;100.00;58812.66;5005836;28;45584;-61
2022/10/27 13:13:06;;;;;;;;;8.00;4.75;;;;;-147.14;100.00;58812.66;5006862;28;46268;-62
2022/10/27 13:16:03;;;;;;;;;8.50;5.75;;;;;-147.14;100.00;58812.66;4994675;28;47209;-62
2022/10/27 13:18:47;;;;;;;;;5.00;4.25;;;;;-147.14;100.00;58812.66;5012145;28;45383;-61
2022/10/27 13:21:24;;;;;;;;;8.75;5.75;;;;;-147.14;100.00;58812.66;5003360;28;45365;-62
2022/10/27 13:23:49;;;;;;;;;6.25;6.00;;;;;-147.14;100.00;58812.66;5007618;28;45447;-61
2022/10/27 13:26:35;;;;;;;;;6.50;5.75;;;;;-147.14;100.00;58812.66;5009617;28;46076;-62
2022/10/27 13:29:39;;;;;;;;;8.00;6.25;;;;;-147.14;100.00;58812.66;5009441;28;45542;-62
2022/10/27 13:32:27;;;;;;;;;10.75;7.75;;;;;-147.14;100.00;58812.66;4999651;28;45392;-62
2022/10/27 13:34:58;;;;;;;;;8.00;5.00;;;;;-147.14;100.00;58812.66;5003587;28;45615;-62
2022/10/27 13:37:43;;;;;;;;;4.75;4.75;;;;;-147.14;100.00;58812.66;5000251;28;46300;-62
2022/10/27 13:40:17;;;;;;;;;3.25;2.75;;;;;-147.14;100.00;58812.66;5005923;28;45430;-62
2022/10/27 13:42:44;;;;;;;;;6.75;5.50;;;;;-147.14;100.00;58812.66;5000059;28;45372;-63
2022/10/27 13:45:32;;;;;;;;;7.25;5.75;;;;;-147.14;100.00;58812.66;5000279;28;45408;-62
2022/10/27 13:48:07;;;;;;;;;8.00;5.25;;;;;-147.14;100.00;58812.66;4999466;28;45502;-62
2022/10/27 13:50:56;;;;;;;;;7.75;6.00;;;;;-147.14;100.00;58812.66;5010490;28;45331;-62
2022/10/27 13:53:22;;;;;;;;;8.25;5.00;;;;;-147.14;100.00;58812.66;4999772;28;45347;-62
2022/10/27 13:55:49;;;;;;;;;9.75;8.00;;;;;-147.14;100.00;58812.66;5013524;28;45448;-63
2022/10/27 13:58:28;;;;;;;;;7.50;5.75;;;;;-147.14;100.00;58812.66;5011512;28;47482;-62
2022/10/27 14:01:05;;;;;;;;;5.00;3.50;;;;;-147.14;100.00;58812.66;4999941;28;45413;-62
2022/10/27 14:03:36;;;;;;;;;6.50;6.25;;;;;-147.14;100.00;58812.66;4999989;28;45420;-62
2022/10/27 14:06:02;;;;;;;;;8.75;8.00;;;;;-147.14;100.00;58812.66;4999098;28;45452;-62
2022/10/27 14:08:32;;;;;;;;;7.25;5.50;;;;;-147.14;100.00;58812.66;5004383;28;45432;-62
2022/10/27 14:11:01;;;;;;;;;6.50;6.50;;;;;-147.14;100.00;58812.66;5005930;28;45357;-62
2022/10/27 14:13:43;;;;;;;;;10.00;6.00;;;;;-147.14;100.00;58812.66;5002696;28;45426;-62
2022/10/27 14:16:17;;;;;;;;;5.25;5.25;;;;;-147.14;100.00;58812.66;5001303;28;45669;-62
2022/10/27 14:18:43;;;;;;;;;9.67;8.67;;;;;-147.14;100.00;58812.66;4999703;28;45769;-62
2022/10/27 14:21:20;;;;;;;;;6.75;6.75;;;;;-147.14;100.00;58812.66;4997857;28;55296;-62
2022/10/27 14:23:46;;;;;;;;;9.50;6.75;;;;;-147.14;100.00;58812.66;5007498;28;45445;-62
2022/10/27 14:26:31;;;;;;;;;7.50;6.25;;;;;-147.14;100.00;58812.66;5000724;28;65606;-62
2022/10/27 14:28:56;;;;;;;;;8.75;7.75;;;;;-147.14;100.00;58812.66;4999007;28;46193;-63
2022/10/27 14:31:24;;;;;;;;;7.00;6.75;;;;;-147.14;100.00;58812.66;5007111;28;67649;-62
2022/10/27 14:33:51;;;;;;;;;6.00;5.00;;;;;-147.14;100.00;58812.66;5002931;28;45474;-62
2022/10/27 14:36:32;;;;;;;;;7.25;4.25;;;;;-147.14;100.00;58812.66;5007725;28;45682;-62
2022/10/27 14:39:05;;;;;;;;;6.50;5.75;;;;;-147.14;100.00;58812.66;5004786;28;46381;-63
2022/10/27 14:41:32;;;;;;;;;8.00;8.00;;;;;-147.14;100.00;58812.66;5007927;28;45376;-63
2022/10/27 14:44:00;;;;;;;;;9.00;6.25;;;;;-147.14;100.00;58812.66;5001884;28;45416;-63
2022/10/27 14:46:29;;;;;;;;;9.75;6.00;;;;;-147.14;100.00;58812.66;4999359;28;45444;-63
2022/10/27 14:49:04;;;;;;;;;7.00;6.75;;;;;-147.14;100.00;58812.66;5005897;28;46198;-63
2022/10/27 14:51:33;;;;;;;;;6.25;5.25;;;;;-147.14;100.00;58812.66;5004498;28;45498;-62
2022/10/27 14:53:59;;;;;;;;;9.50;7.00;;;;;-147.14;100.00;58812.66;5013633;28;45405;-63
2022/10/27 14:56:27;;;;;;;;;5.50;5.25;;;;;-147.14;100.00;58812.66;5004267;28;62884;-62
2022/10/27 14:59:01;;;;;;;;;6.25;6.25;;;;;-147.14;100.00;58812.66;5001108;28;45524;-63
2022/10/27 15:01:35;;;;;;;;;8.00;6.50;;;;;-147.14;100.00;58812.66;5005018;28;45697;-63
2022/10/27 15:04:18;;;;;;;;;11.25;8.25;;;;;-147.14;100.00;58812.66;5005829;28;45368;-63
2022/10/27 15:06:45;;;;;;;;;6.50;5.00;;;;;-147.14;100.00;58812.66;5005997;28;45719;-62
2022/10/27 15:09:33;;;;;;;;;8.00;8.00;;;;;-147.14;100.00;58812.66;4998785;28;47114;-63
2022/10/27 15:12:05;;;;;;;;;8.25;5.50;;;;;-147.14;100.00;58812.66;5003325;28;45501;-63
2022/10/27 15:14:33;;;;;;;;;6.50;6.25;;;;;-147.14;100.00;58812.66;5004901;28;45387;-63
2022/10/27 15:16:59;;;;;;;;;9.25;7.00;;;;;-147.14;100.00;58812.66;5014792;28;45479;-63
2022/10/27 15:19:24;;;;;;;;;9.00;7.00;;;;;-147.14;100.00;58812.66;5000499;28;46293;-62
2022/10/27 15:21:51;;;;;;;;;10.50;6.00;;;;;-147.14;100.00;58812.66;4999998;28;68385;-63
2022/10/27 15:24:21;;;;;;;;;6.25;5.50;;;;;-147.14;100.00;58812.66;5007886;28;45493;-63
2022/10/27 15:26:46;;;;;;;;;7.67;5.67;;;;;-147.14;100.00;58812.66;5010182;28;45377;-62
2022/10/27 15:29:15;;;;;;;;;10.00;6.75;;;;;-147.14;100.00;58812.66;5000986;28;54496;-63
2022/10/27 15:31:41;;;;;;;;;7.67;7.00;;;;;-147.14;100.00;58812.66;5006892;28;45336;-63
2022/10/27 15:34:36;;;;;;;;;9.75;7.25;;;;;-147.14;100.00;58812.66;4998130;28;45480;-63
2022/10/27 15:37:25;;;;;;;;;6.00;6.00;;;;;-147.14;100.00;58812.66;4999123;28;45476;-63
2022/10/27 15:39:50;;;;;;;;;6.00;6.00;;;;;-147.14;100.00;58812.66;5004964;28;47123;-63
2022/10/27 15:42:21;;;;;;;;;6.67;6.33;;;;;-147.14;100.00;58812.66;4998264;28;45397;-63
2022/10/27 15:44:47;;;;;;;;;8.25;6.75;;;;;-147.14;100.00;58812.66;5005769;28;45486;-63
2022/10/27 15:47:36;;;;;;;;;6.75;6.25;;;;;-147.14;100.00;58812.66;5006521;28;62326;-63
2022/10/27 15:50:02;;;;;;;;;6.25;5.75;;;;;-147.14;100.00;58812.66;5000425;28;45431;-62
2022/10/27 15:52:29;;;;;;;;;9.50;8.25;;;;;-147.14;100.00;58812.66;5009857;28;45393;-62
2022/10/27 15:54:54;;;;;;;;;9.33;8.00;;;;;-147.14;100.00;58812.66;4997709;28;45360;-62
2022/10/27 15:57:41;;;;;;;;;5.00;5.00;;;;;-147.14;100.00;58812.66;5007790;28;45454;-62
2022/10/27 16:00:12;;;;;;;;;10.00;7.75;;;;;-147.14;100.00;58812.66;5002962;28;47116;-61